Terminal Aerodrome Forecast
Issued by NWS

Home | Current Version | Previous Version | Text Only | Print | Product List | Glossary On
Versions: 1 2 3 4 5 6 7 8 9 10 11 12 13 14 15 16 17 18
000
FTUS43 KIND 270900 AAA
TAFHUF
TAF AMD
KHUF 270901Z 2709/2806 21008KT P6SM SCT040
     FM271700 24010G18KT P6SM VCTS BKN040CB
     FM272200 25010G18KT P6SM BKN250
     FM280100 32003KT P6SM SKC=

USA.gov is the U.S. government's official web portal to all federal, state and local government web resources and services.